Time;durP1;ratioP1;P1;durP2;ratioP2;P2;SDS_P1;SDS_P2;PMS_P1;PMS_P2;Temp;Humidity;BMP_temperature;BMP_pressure;BME280_temperature;BME280_humidity;BME280_pressure;Samples;Min_cycle;Max_cycle;Signal;HPM_P1;HPM_P2
2022/01/20 00:01:50;;;;;;;13.50;3.72;;;;;;;;;;5033170;28;20672;-55
2022/01/20 00:04:25;;;;;;;14.43;3.65;;;;;;;;;;5033480;28;20600;-56
2022/01/20 00:26:29;;;;;;;17.38;3.88;;;;;;;;;;5037772;28;20224;-56
2022/01/20 00:29:00;;;;;;;12.45;3.50;;;;;;;;;;5037119;28;20230;-55
2022/01/20 00:31:43;;;;;;;11.73;3.60;;;;;;;;;;5037143;28;20650;-56
2022/01/20 00:34:14;;;;;;;14.88;3.35;;;;;;;;;;5037563;28;20206;-56
2022/01/20 00:39:27;;;;;;;17.48;3.58;;;;;;;;;;5037021;28;20216;-55
2022/01/20 00:41:55;;;;;;;10.63;3.47;;;;;;;;;;5037020;28;20199;-55
2022/01/20 00:44:23;;;;;;;14.77;3.38;;;;;;;;;;5037075;28;20225;-56
2022/01/20 00:46:52;;;;;;;16.27;3.55;;;;;;;;;;5036982;28;20523;-55
2022/01/20 00:49:20;;;;;;;18.27;4.55;;;;;;;;;;5036622;28;20230;-56
2022/01/20 00:51:48;;;;;;;22.35;4.30;;;;;;;;;;5037114;28;20205;-56
2022/01/20 00:54:15;;;;;;;19.00;4.65;;;;;;;;;;5036580;28;20225;-55
2022/01/20 00:56:42;;;;;;;17.83;3.88;;;;;;;;;;5037873;28;20213;-55
2022/01/20 00:59:10;;;;;;;23.20;4.03;;;;;;;;;;5036812;28;20598;-55
2022/01/20 01:01:37;;;;;;;21.58;4.85;;;;;;;;;;5036536;28;20199;-55
2022/01/20 01:04:06;;;;;;;20.95;4.40;;;;;;;;;;5036768;28;20202;-55
2022/01/20 01:06:49;;;;;;;15.82;3.55;;;;;;;;;;5036551;28;20628;-56
2022/01/20 01:09:17;;;;;;;21.65;4.18;;;;;;;;;;5036311;28;20710;-55
2022/01/20 01:11:46;;;;;;;13.02;4.05;;;;;;;;;;5036433;28;20198;-56
2022/01/20 01:14:15;;;;;;;18.52;3.38;;;;;;;;;;5037209;28;20230;-56
2022/01/20 01:20:05;;;;;;;19.33;3.60;;;;;;;;;;5037296;28;20256;-55
2022/01/20 01:20:08;;;;;;;13.63;3.90;;;;;;;;;;5036157;28;20325;-56
2022/01/20 01:22:36;;;;;;;15.25;3.70;;;;;;;;;;5036251;28;20216;-55
2022/01/20 01:25:03;;;;;;;17.38;3.30;;;;;;;;;;5036158;28;20198;-55
2022/01/20 01:27:35;;;;;;;16.98;3.90;;;;;;;;;;5035745;28;20203;-57
2022/01/20 01:30:08;;;;;;;22.05;4.05;;;;;;;;;;5036181;28;20186;-57
2022/01/20 01:32:47;;;;;;;11.15;2.78;;;;;;;;;;5035807;28;20187;-56
2022/01/20 01:35:17;;;;;;;14.95;3.40;;;;;;;;;;5036037;28;20301;-55
2022/01/20 01:40:28;;;;;;;14.07;3.03;;;;;;;;;;5023827;28;20245;-55
2022/01/20 01:42:56;;;;;;;22.73;5.20;;;;;;;;;;5035670;28;20673;-56
2022/01/20 01:45:26;;;;;;;14.70;3.20;;;;;;;;;;5035487;28;20245;-56
2022/01/20 01:47:54;;;;;;;14.40;3.10;;;;;;;;;;5035888;28;20234;-56
2022/01/20 01:50:23;;;;;;;13.07;2.70;;;;;;;;;;5036262;28;20209;-56
2022/01/20 01:52:50;;;;;;;14.68;4.63;;;;;;;;;;5035679;28;20570;-56
2022/01/20 01:55:17;;;;;;;11.57;2.90;;;;;;;;;;5035363;28;20218;-56
2022/01/20 01:57:45;;;;;;;12.50;3.67;;;;;;;;;;5035698;28;20230;-57
2022/01/20 02:00:13;;;;;;;14.70;5.20;;;;;;;;;;5035841;28;20202;-56
2022/01/20 02:02:42;;;;;;;10.23;4.03;;;;;;;;;;5035764;28;20206;-56
2022/01/20 02:05:11;;;;;;;12.27;5.07;;;;;;;;;;5035625;28;20225;-57
2022/01/20 02:18:47;;;;;;;13.07;3.15;;;;;;;;;;5034961;28;20214;-56
2022/01/20 02:21:16;;;;;;;14.68;2.65;;;;;;;;;;5034932;28;20187;-58
2022/01/20 02:23:43;;;;;;;15.90;4.00;;;;;;;;;;5035162;28;20226;-55
2022/01/20 02:26:11;;;;;;;13.95;3.70;;;;;;;;;;5034996;28;20209;-57
2022/01/20 02:28:38;;;;;;;12.27;3.38;;;;;;;;;;5034898;28;20229;-56
2022/01/20 02:31:06;;;;;;;13.65;2.65;;;;;;;;;;5034914;28;20216;-56
2022/01/20 02:33:34;;;;;;;12.57;3.17;;;;;;;;;;5034499;28;20205;-56
2022/01/20 02:36:04;;;;;;;12.23;2.63;;;;;;;;;;5034792;28;20198;-56
2022/01/20 02:38:37;;;;;;;17.08;3.55;;;;;;;;;;5034432;28;20226;-57
2022/01/20 02:46:35;;;;;;;15.25;3.33;;;;;;;;;;5034487;28;20560;-56
2022/01/20 02:49:02;;;;;;;21.92;4.07;;;;;;;;;;5033126;28;20230;-56
2022/01/20 02:51:29;;;;;;;16.27;2.85;;;;;;;;;;5034577;28;20206;-56
2022/01/20 02:53:58;;;;;;;17.92;4.30;;;;;;;;;;5034475;28;20218;-55
2022/01/20 02:56:26;;;;;;;10.43;2.65;;;;;;;;;;5034054;28;20298;-57
2022/01/20 02:58:53;;;;;;;16.17;3.00;;;;;;;;;;5034277;28;20225;-56
2022/01/20 03:01:20;;;;;;;5.47;2.17;;;;;;;;;;5034161;28;20667;-56
2022/01/20 03:03:48;;;;;;;9.82;3.35;;;;;;;;;;5034158;28;20206;-54
2022/01/20 03:06:15;;;;;;;10.93;2.58;;;;;;;;;;5034057;28;20205;-56
2022/01/20 03:08:42;;;;;;;6.13;2.38;;;;;;;;;;5033871;28;20223;-57
2022/01/20 03:11:11;;;;;;;13.93;4.63;;;;;;;;;;5034218;28;20233;-56
2022/01/20 03:13:38;;;;;;;14.77;2.65;;;;;;;;;;5034122;28;20555;-57
2022/01/20 03:16:06;;;;;;;7.03;2.40;;;;;;;;;;5033797;28;20675;-56
2022/01/20 03:18:33;;;;;;;7.90;1.80;;;;;;;;;;5034442;28;20222;-56
2022/01/20 03:21:01;;;;;;;4.28;1.95;;;;;;;;;;5034211;28;20203;-56
2022/01/20 03:23:28;;;;;;;11.98;2.60;;;;;;;;;;5034772;28;20203;-55
2022/01/20 03:25:55;;;;;;;13.13;2.97;;;;;;;;;;5034821;28;20566;-55
2022/01/20 03:28:24;;;;;;;9.18;2.03;;;;;;;;;;5034291;28;20709;-57
2022/01/20 03:30:52;;;;;;;8.70;1.98;;;;;;;;;;5034673;28;20203;-56
2022/01/20 03:33:19;;;;;;;7.78;1.92;;;;;;;;;;5035368;28;20206;-55
2022/01/20 03:35:47;;;;;;;2.83;2.17;;;;;;;;;;5034236;28;20218;-56
2022/01/20 03:38:15;;;;;;;8.98;1.85;;;;;;;;;;5034303;28;20638;-56
2022/01/20 03:40:42;;;;;;;7.45;2.10;;;;;;;;;;5034275;28;20206;-56
2022/01/20 03:43:09;;;;;;;7.80;2.05;;;;;;;;;;5034610;28;20233;-56
2022/01/20 03:45:38;;;;;;;4.50;2.00;;;;;;;;;;5034241;28;20194;-56
2022/01/20 03:48:10;;;;;;;3.65;1.48;;;;;;;;;;5033900;28;20326;-56
2022/01/20 03:53:22;;;;;;;11.82;1.67;;;;;;;;;;5033803;28;20232;-56
2022/01/20 03:55:49;;;;;;;4.57;1.70;;;;;;;;;;5033675;28;20232;-56
2022/01/20 03:58:17;;;;;;;9.95;1.70;;;;;;;;;;5033869;28;20234;-56
2022/01/20 04:00:46;;;;;;;4.40;1.30;;;;;;;;;;5033867;28;20567;-57
2022/01/20 04:03:13;;;;;;;4.93;1.25;;;;;;;;;;5033954;28;20226;-57
2022/01/20 04:09:12;;;;;;;2.60;1.20;;;;;;;;;;5133099;27;20551;-58
2022/01/20 04:11:40;;;;;;;3.80;1.42;;;;;;;;;;5132341;27;20666;-55
2022/01/20 04:14:07;;;;;;;5.78;1.58;;;;;;;;;;5131881;27;20217;-56
2022/01/20 04:16:37;;;;;;;4.93;1.25;;;;;;;;;;5131735;27;20286;-57
2022/01/20 04:19:07;;;;;;;2.10;0.82;;;;;;;;;;5133454;27;20223;-57
2022/01/20 04:21:35;;;;;;;1.10;0.80;;;;;;;;;;5158088;22;20433;-61
2022/01/20 04:24:03;;;;;;;3.05;1.10;;;;;;;;;;5134522;28;20191;-61
2022/01/20 04:26:33;;;;;;;0.98;0.88;;;;;;;;;;5134553;28;20195;-61
2022/01/20 04:29:01;;;;;;;1.83;0.98;;;;;;;;;;5133994;28;20279;-61
2022/01/20 04:31:29;;;;;;;7.85;1.30;;;;;;;;;;5133768;28;20203;-60
2022/01/20 04:33:57;;;;;;;1.98;1.20;;;;;;;;;;5134390;28;20203;-60
2022/01/20 04:36:24;;;;;;;1.85;1.45;;;;;;;;;;5132746;28;20346;-60
2022/01/20 04:38:52;;;;;;;4.80;1.67;;;;;;;;;;5134191;28;20217;-61
2022/01/20 04:41:20;;;;;;;6.32;2.75;;;;;;;;;;5135657;28;20241;-60
2022/01/20 04:43:49;;;;;;;5.40;2.03;;;;;;;;;;5132889;28;20203;-60
2022/01/20 04:46:24;;;;;;;4.13;2.00;;;;;;;;;;5131606;28;20230;-61
2022/01/20 04:49:08;;;;;;;3.22;1.50;;;;;;;;;;5131128;28;20573;-60
2022/01/20 04:57:16;;;;;;;3.35;1.50;;;;;;;;;;5131609;28;20214;-61
2022/01/20 04:59:45;;;;;;;5.07;1.52;;;;;;;;;;5131837;28;20184;-61
2022/01/20 05:02:13;;;;;;;4.10;1.90;;;;;;;;;;5131249;28;20579;-61
2022/01/20 05:04:40;;;;;;;5.65;1.40;;;;;;;;;;5130764;28;20195;-61
2022/01/20 05:07:09;;;;;;;4.90;1.77;;;;;;;;;;5130918;28;20196;-61
2022/01/20 05:09:36;;;;;;;9.48;1.85;;;;;;;;;;5130746;28;20198;-61
2022/01/20 05:12:07;;;;;;;5.10;1.65;;;;;;;;;;5130627;28;20223;-61
2022/01/20 05:14:35;;;;;;;8.43;2.10;;;;;;;;;;5130753;28;20187;-61
2022/01/20 05:17:04;;;;;;;3.78;1.42;;;;;;;;;;5130561;28;20206;-61
2022/01/20 05:19:32;;;;;;;6.05;1.95;;;;;;;;;;5122599;28;20671;-61
2022/01/20 05:22:00;;;;;;;6.00;1.98;;;;;;;;;;5116572;28;20231;-62
2022/01/20 05:24:28;;;;;;;13.90;2.88;;;;;;;;;;5116804;28;20195;-61
2022/01/20 05:26:57;;;;;;;6.90;3.15;;;;;;;;;;5116842;28;20211;-62
2022/01/20 05:29:24;;;;;;;6.50;1.42;;;;;;;;;;5116703;28;20220;-61
2022/01/20 05:31:52;;;;;;;10.85;2.63;;;;;;;;;;5116207;28;20703;-61
2022/01/20 05:34:20;;;;;;;6.40;2.72;;;;;;;;;;5116609;28;20207;-61
2022/01/20 05:36:48;;;;;;;8.05;2.53;;;;;;;;;;5116520;28;20566;-62
2022/01/20 05:39:15;;;;;;;5.30;2.15;;;;;;;;;;5116268;28;20199;-62
2022/01/20 05:41:43;;;;;;;12.27;3.10;;;;;;;;;;5116172;28;20224;-61
2022/01/20 05:44:10;;;;;;;9.60;2.58;;;;;;;;;;5116584;28;20199;-61
2022/01/20 05:46:43;;;;;;;9.98;2.60;;;;;;;;;;5116439;28;20199;-61
2022/01/20 05:49:10;;;;;;;9.52;2.85;;;;;;;;;;5116141;28;20208;-60
2022/01/20 05:51:39;;;;;;;4.60;2.17;;;;;;;;;;5115840;28;20219;-61
2022/01/20 05:54:07;;;;;;;5.82;1.92;;;;;;;;;;5115575;28;20207;-60
2022/01/20 05:56:35;;;;;;;8.13;1.90;;;;;;;;;;5115851;28;20204;-61
2022/01/20 05:59:02;;;;;;;8.25;2.70;;;;;;;;;;5115739;28;20200;-61
2022/01/20 06:01:32;;;;;;;8.98;2.17;;;;;;;;;;5115226;28;20667;-61
2022/01/20 06:03:59;;;;;;;11.10;2.78;;;;;;;;;;5115926;28;20239;-61
2022/01/20 06:06:26;;;;;;;9.80;2.17;;;;;;;;;;5115756;28;20612;-61
2022/01/20 06:08:55;;;;;;;10.52;2.83;;;;;;;;;;5115377;28;20222;-62
2022/01/20 06:11:22;;;;;;;12.13;2.67;;;;;;;;;;5115688;28;20294;-61
2022/01/20 06:13:49;;;;;;;12.95;3.53;;;;;;;;;;5115158;28;20195;-60
2022/01/20 06:16:17;;;;;;;7.60;2.40;;;;;;;;;;5115057;28;20196;-61
2022/01/20 06:18:44;;;;;;;7.95;2.50;;;;;;;;;;5115255;28;20200;-61
2022/01/20 06:21:11;;;;;;;12.60;2.88;;;;;;;;;;5115487;28;20199;-61
2022/01/20 06:23:40;;;;;;;6.47;2.40;;;;;;;;;;5115314;28;20210;-60
2022/01/20 06:26:08;;;;;;;7.25;3.05;;;;;;;;;;5115811;28;20196;-61
2022/01/20 06:28:36;;;;;;;7.25;2.10;;;;;;;;;;5115210;28;20220;-61
2022/01/20 06:31:04;;;;;;;4.10;1.70;;;;;;;;;;5114386;28;20211;-61
2022/01/20 06:33:31;;;;;;;4.15;1.63;;;;;;;;;;5115157;28;20215;-61
2022/01/20 06:35:59;;;;;;;12.65;3.30;;;;;;;;;;5115104;28;20215;-61
2022/01/20 06:38:26;;;;;;;7.93;2.30;;;;;;;;;;5115005;28;20511;-61
2022/01/20 06:40:54;;;;;;;14.27;2.80;;;;;;;;;;5115731;28;20552;-60
2022/01/20 06:43:23;;;;;;;12.48;2.83;;;;;;;;;;5115190;28;20678;-59
2022/01/20 06:45:50;;;;;;;21.77;3.33;;;;;;;;;;5115044;28;20204;-61
2022/01/20 06:48:17;;;;;;;12.27;2.17;;;;;;;;;;5114646;28;20211;-60
2022/01/20 06:50:44;;;;;;;8.13;2.70;;;;;;;;;;5115351;28;20199;-60
2022/01/20 06:53:12;;;;;;;8.98;2.75;;;;;;;;;;5114445;28;20219;-60
2022/01/20 06:55:39;;;;;;;10.75;2.30;;;;;;;;;;5114564;28;20644;-61
2022/01/20 06:58:07;;;;;;;6.25;1.80;;;;;;;;;;5114753;28;20682;-61
2022/01/20 07:00:35;;;;;;;7.18;1.67;;;;;;;;;;5114471;28;20210;-60
2022/01/20 07:03:03;;;;;;;11.35;2.35;;;;;;;;;;5118083;28;20733;-60
2022/01/20 07:05:30;;;;;;;9.77;2.88;;;;;;;;;;5122728;28;20218;-60
2022/01/20 07:07:57;;;;;;;7.05;2.45;;;;;;;;;;5121111;28;20215;-61
2022/01/20 07:10:25;;;;;;;5.93;2.25;;;;;;;;;;5121223;28;20211;-59
2022/01/20 07:12:53;;;;;;;9.25;2.60;;;;;;;;;;5116724;28;20245;-61
2022/01/20 07:15:20;;;;;;;4.63;1.67;;;;;;;;;;5114885;28;20199;-60
2022/01/20 07:17:49;;;;;;;5.32;2.05;;;;;;;;;;5120706;28;20204;-60
2022/01/20 07:20:16;;;;;;;7.88;2.28;;;;;;;;;;5126182;28;20208;-61
2022/01/20 07:22:44;;;;;;;8.65;2.58;;;;;;;;;;5126067;28;20231;-61
2022/01/20 07:25:11;;;;;;;12.80;2.55;;;;;;;;;;5126610;28;20207;-61
2022/01/20 07:27:38;;;;;;;10.82;2.97;;;;;;;;;;5122525;28;20203;-59
2022/01/20 07:30:06;;;;;;;9.43;2.85;;;;;;;;;;5122554;28;20230;-60
2022/01/20 07:32:34;;;;;;;6.00;2.33;;;;;;;;;;5118363;28;20220;-61
2022/01/20 07:35:02;;;;;;;8.45;2.20;;;;;;;;;;5115072;28;20200;-61
2022/01/20 07:37:30;;;;;;;9.27;2.80;;;;;;;;;;5115519;28;20204;-61
2022/01/20 07:39:57;;;;;;;10.38;2.70;;;;;;;;;;5115580;28;20195;-60
2022/01/20 07:42:24;;;;;;;7.88;2.67;;;;;;;;;;5114433;28;20226;-59
2022/01/20 07:44:51;;;;;;;12.55;3.60;;;;;;;;;;5114859;28;20208;-60
2022/01/20 07:47:19;;;;;;;7.93;2.70;;;;;;;;;;5114974;28;20204;-59
2022/01/20 07:49:46;;;;;;;5.85;2.10;;;;;;;;;;5114112;28;20215;-59
2022/01/20 07:52:15;;;;;;;9.75;2.50;;;;;;;;;;5114791;28;20302;-61
2022/01/20 07:54:42;;;;;;;4.63;1.80;;;;;;;;;;5114465;28;20196;-60
2022/01/20 07:57:10;;;;;;;11.73;3.03;;;;;;;;;;5114438;28;20204;-61
2022/01/20 07:59:37;;;;;;;5.60;2.00;;;;;;;;;;5115428;28;20199;-61
2022/01/20 08:02:04;;;;;;;14.80;3.17;;;;;;;;;;5113865;28;20234;-61
2022/01/20 08:04:32;;;;;;;8.75;2.58;;;;;;;;;;5113948;28;20219;-61
2022/01/20 08:06:59;;;;;;;9.48;2.63;;;;;;;;;;5120128;28;20204;-62
2022/01/20 08:09:28;;;;;;;11.20;2.28;;;;;;;;;;5125686;28;20219;-61
2022/01/20 08:11:55;;;;;;;9.82;2.20;;;;;;;;;;5124253;28;20231;-61
2022/01/20 08:14:22;;;;;;;9.07;3.13;;;;;;;;;;5122661;28;20200;-60
2022/01/20 08:16:49;;;;;;;16.65;2.42;;;;;;;;;;5121264;28;20207;-59
2022/01/20 08:19:17;;;;;;;9.80;2.63;;;;;;;;;;5114375;28;20206;-61
2022/01/20 08:21:44;;;;;;;10.60;2.65;;;;;;;;;;5114241;28;20231;-61
2022/01/20 08:24:11;;;;;;;7.88;2.47;;;;;;;;;;5114127;28;20203;-61
2022/01/20 08:26:40;;;;;;;10.20;2.35;;;;;;;;;;5113542;28;20196;-61
2022/01/20 08:29:07;;;;;;;8.50;2.15;;;;;;;;;;5113552;28;20227;-61
2022/01/20 08:31:35;;;;;;;10.55;2.58;;;;;;;;;;5114170;28;20253;-62
2022/01/20 08:34:02;;;;;;;3.80;2.05;;;;;;;;;;5113959;28;20196;-60
2022/01/20 08:36:29;;;;;;;11.02;2.80;;;;;;;;;;5113753;28;20206;-61
2022/01/20 08:38:56;;;;;;;11.73;2.63;;;;;;;;;;5114165;28;20202;-61
2022/01/20 08:41:24;;;;;;;12.23;2.85;;;;;;;;;;5114185;28;20280;-61
2022/01/20 08:43:52;;;;;;;7.40;2.80;;;;;;;;;;5113943;28;20199;-61
2022/01/20 08:46:21;;;;;;;8.23;2.45;;;;;;;;;;5113048;28;20208;-61
2022/01/20 08:48:49;;;;;;;10.73;2.33;;;;;;;;;;5113795;28;20216;-59
2022/01/20 08:51:16;;;;;;;3.63;2.05;;;;;;;;;;5113863;28;20547;-60
2022/01/20 08:53:43;;;;;;;9.30;2.38;;;;;;;;;;5114228;28;20204;-61
2022/01/20 08:56:12;;;;;;;4.80;2.75;;;;;;;;;;5117551;28;20207;-61
2022/01/20 08:58:40;;;;;;;8.27;2.25;;;;;;;;;;5118049;28;20196;-61
2022/01/20 09:01:08;;;;;;;13.20;2.83;;;;;;;;;;5117658;28;20207;-61
2022/01/20 09:03:36;;;;;;;9.75;2.85;;;;;;;;;;5117485;28;20321;-60
2022/01/20 09:06:05;;;;;;;9.65;3.35;;;;;;;;;;5117125;28;20207;-61
2022/01/20 09:08:32;;;;;;;12.63;3.05;;;;;;;;;;5117642;28;20206;-60
2022/01/20 09:11:01;;;;;;;11.77;2.15;;;;;;;;;;5117380;28;20574;-61
2022/01/20 09:16:15;;;;;;;9.93;2.38;;;;;;;;;;5125182;28;20195;-61
2022/01/20 09:18:42;;;;;;;11.63;3.15;;;;;;;;;;5125215;28;20192;-60
2022/01/20 09:21:10;;;;;;;6.20;2.55;;;;;;;;;;5128213;28;20287;-60
2022/01/20 09:23:37;;;;;;;11.40;2.47;;;;;;;;;;5126028;28;20232;-60
2022/01/20 09:26:04;;;;;;;8.40;2.42;;;;;;;;;;5122776;28;20656;-58
2022/01/20 09:28:31;;;;;;;5.45;2.50;;;;;;;;;;5125096;28;20210;-60
2022/01/20 09:31:00;;;;;;;4.00;2.38;;;;;;;;;;5117643;28;20211;-60
2022/01/20 09:33:29;;;;;;;7.13;1.90;;;;;;;;;;5116740;28;20314;-60
2022/01/20 09:35:57;;;;;;;5.72;1.80;;;;;;;;;;5118060;28;20291;-60
2022/01/20 09:38:25;;;;;;;9.93;2.33;;;;;;;;;;5116985;28;20215;-60
2022/01/20 09:40:52;;;;;;;9.20;2.05;;;;;;;;;;5117410;28;20671;-61
2022/01/20 09:43:20;;;;;;;11.10;3.30;;;;;;;;;;5117055;28;20219;-61
2022/01/20 09:45:50;;;;;;;11.18;2.53;;;;;;;;;;5117369;28;20279;-60
2022/01/20 09:48:18;;;;;;;8.05;2.72;;;;;;;;;;5117054;28;20204;-61
2022/01/20 09:50:47;;;;;;;11.05;3.67;;;;;;;;;;5117572;28;20223;-61
2022/01/20 09:53:14;;;;;;;8.82;2.63;;;;;;;;;;5116811;28;20220;-60
2022/01/20 09:55:41;;;;;;;6.22;2.10;;;;;;;;;;5117299;28;20278;-60
2022/01/20 09:58:10;;;;;;;5.28;2.90;;;;;;;;;;5117288;28;20207;-60
2022/01/20 10:00:37;;;;;;;11.18;2.17;;;;;;;;;;5117762;28;20195;-60
2022/01/20 10:03:08;;;;;;;7.10;2.00;;;;;;;;;;5117465;28;20587;-61
2022/01/20 10:05:36;;;;;;;6.55;2.33;;;;;;;;;;5118356;28;20199;-60
2022/01/20 10:08:10;;;;;;;10.40;2.20;;;;;;;;;;5120211;28;20196;-58
2022/01/20 10:10:39;;;;;;;20.40;3.25;;;;;;;;;;5127387;28;20609;-60
2022/01/20 10:13:06;;;;;;;4.95;2.72;;;;;;;;;;5125172;28;20220;-61
2022/01/20 10:15:34;;;;;;;4.63;1.88;;;;;;;;;;5122912;28;20202;-61
2022/01/20 10:18:05;;;;;;;5.80;1.65;;;;;;;;;;5121295;28;20204;-60
2022/01/20 10:20:32;;;;;;;8.18;1.90;;;;;;;;;;5119657;28;20203;-60
2022/01/20 10:23:00;;;;;;;8.55;3.35;;;;;;;;;;5142139;22;20232;-57
2022/01/20 10:25:34;;;;;;;10.05;2.47;;;;;;;;;;5094829;28;20200;-56
2022/01/20 10:28:01;;;;;;;6.75;2.83;;;;;;;;;;5094919;28;20184;-56
2022/01/20 10:30:30;;;;;;;12.43;2.35;;;;;;;;;;5094401;28;20591;-57
2022/01/20 10:32:58;;;;;;;6.43;2.15;;;;;;;;;;5094373;28;20221;-56
2022/01/20 10:35:27;;;;;;;8.30;2.35;;;;;;;;;;5094160;28;20200;-57
2022/01/20 10:37:58;;;;;;;8.88;3.15;;;;;;;;;;5094605;28;20197;-57
2022/01/20 10:40:25;;;;;;;11.00;3.75;;;;;;;;;;5094392;28;20208;-56
2022/01/20 10:42:55;;;;;;;8.70;2.50;;;;;;;;;;5094200;28;20238;-56
2022/01/20 10:45:23;;;;;;;11.02;2.10;;;;;;;;;;5094300;28;20229;-56
2022/01/20 10:47:51;;;;;;;12.32;3.08;;;;;;;;;;5094259;28;20695;-56
2022/01/20 10:50:21;;;;;;;12.45;2.65;;;;;;;;;;5094062;28;20213;-57
2022/01/20 10:52:52;;;;;;;8.88;2.50;;;;;;;;;;5094471;28;20224;-57
2022/01/20 10:55:21;;;;;;;10.18;2.25;;;;;;;;;;5094135;28;20562;-56
2022/01/20 10:57:48;;;;;;;12.05;2.53;;;;;;;;;;5094282;28;20234;-57
2022/01/20 11:00:19;;;;;;;6.18;1.77;;;;;;;;;;5094214;28;20196;-54
2022/01/20 11:02:50;;;;;;;8.32;2.45;;;;;;;;;;5093703;28;20220;-57
2022/01/20 11:05:17;;;;;;;12.25;3.90;;;;;;;;;;5093609;28;20188;-55
2022/01/20 11:07:45;;;;;;;9.80;2.75;;;;;;;;;;5093741;28;20663;-56
2022/01/20 11:10:13;;;;;;;7.72;2.97;;;;;;;;;;5094075;28;20227;-57
2022/01/20 11:12:40;;;;;;;11.10;1.80;;;;;;;;;;5094295;28;20243;-57
2022/01/20 11:15:08;;;;;;;5.72;2.08;;;;;;;;;;5094040;28;20207;-57
2022/01/20 11:17:40;;;;;;;5.75;2.10;;;;;;;;;;5093611;28;20254;-56
2022/01/20 11:20:09;;;;;;;9.45;2.15;;;;;;;;;;5094741;28;20237;-56
2022/01/20 11:22:36;;;;;;;9.57;2.53;;;;;;;;;;5094096;28;20234;-56
2022/01/20 11:25:08;;;;;;;6.82;2.25;;;;;;;;;;5093623;28;20192;-55
2022/01/20 11:27:36;;;;;;;5.93;2.38;;;;;;;;;;5093583;28;20188;-57
2022/01/20 11:30:14;;;;;;;7.50;2.53;;;;;;;;;;5093259;28;20223;-57
2022/01/20 11:32:45;;;;;;;6.25;2.50;;;;;;;;;;5093173;28;20220;-57
2022/01/20 11:35:18;;;;;;;4.78;2.30;;;;;;;;;;5093250;28;20268;-56
2022/01/20 11:37:56;;;;;;;6.80;2.10;;;;;;;;;;5093634;28;20192;-57
2022/01/20 11:40:25;;;;;;;3.78;1.90;;;;;;;;;;5093284;28;20206;-56
2022/01/20 11:42:59;;;;;;;6.32;2.50;;;;;;;;;;5093402;28;20649;-56
2022/01/20 11:45:28;;;;;;;4.18;1.95;;;;;;;;;;5093131;28;20290;-57
2022/01/20 11:47:57;;;;;;;5.90;2.25;;;;;;;;;;5093121;28;20196;-56
2022/01/20 11:50:25;;;;;;;8.40;2.63;;;;;;;;;;5093705;28;20216;-57
2022/01/20 11:52:52;;;;;;;4.97;2.20;;;;;;;;;;5093676;28;20227;-56
2022/01/20 11:55:20;;;;;;;7.95;2.72;;;;;;;;;;5093355;28;20200;-57
2022/01/20 11:57:48;;;;;;;6.28;3.17;;;;;;;;;;5093226;28;20702;-56
2022/01/20 12:00:21;;;;;;;5.35;2.78;;;;;;;;;;5093519;28;20283;-55
2022/01/20 12:02:49;;;;;;;9.45;2.83;;;;;;;;;;5093337;28;20587;-57
2022/01/20 12:05:27;;;;;;;5.28;2.53;;;;;;;;;;5093400;28;20208;-57
2022/01/20 12:08:05;;;;;;;11.13;3.10;;;;;;;;;;5093067;28;20444;-55
2022/01/20 12:10:32;;;;;;;11.85;4.00;;;;;;;;;;5093279;28;20204;-57
2022/01/20 12:13:06;;;;;;;8.40;3.65;;;;;;;;;;5093771;28;20235;-57
2022/01/20 12:15:33;;;;;;;10.82;2.67;;;;;;;;;;5093983;28;20193;-56
2022/01/20 12:18:01;;;;;;;13.02;2.83;;;;;;;;;;5094204;28;20712;-57
2022/01/20 12:20:29;;;;;;;8.10;2.55;;;;;;;;;;5093945;28;20196;-56
2022/01/20 12:22:57;;;;;;;6.03;2.10;;;;;;;;;;5093393;28;20227;-56
2022/01/20 12:25:26;;;;;;;7.25;2.05;;;;;;;;;;5093282;28;20203;-56
2022/01/20 12:28:05;;;;;;;9.25;2.50;;;;;;;;;;5093041;28;20212;-57
2022/01/20 12:30:32;;;;;;;13.82;3.13;;;;;;;;;;5096466;28;20261;-55
2022/01/20 12:33:01;;;;;;;12.70;3.50;;;;;;;;;;5096908;28;20273;-56
2022/01/20 12:35:41;;;;;;;4.95;2.40;;;;;;;;;;5096955;28;20203;-56
2022/01/20 12:38:18;;;;;;;7.82;2.20;;;;;;;;;;5096895;28;20192;-54
2022/01/20 12:40:48;;;;;;;9.77;2.50;;;;;;;;;;5096686;28;20184;-57
2022/01/20 12:43:15;;;;;;;4.03;2.40;;;;;;;;;;5096744;28;20310;-56
2022/01/20 12:45:56;;;;;;;8.15;2.95;;;;;;;;;;5096749;28;20207;-56
2022/01/20 12:48:23;;;;;;;9.40;3.00;;;;;;;;;;5096288;28;20220;-57
2022/01/20 12:50:52;;;;;;;5.10;2.58;;;;;;;;;;5096857;28;20224;-57
2022/01/20 12:53:20;;;;;;;4.68;1.90;;;;;;;;;;5096622;28;20224;-57
2022/01/20 12:55:53;;;;;;;4.93;1.98;;;;;;;;;;5096470;28;20206;-58
2022/01/20 12:58:21;;;;;;;6.72;2.30;;;;;;;;;;5096666;28;20204;-56
2022/01/20 13:00:58;;;;;;;10.10;2.60;;;;;;;;;;5096338;28;20193;-57
2022/01/20 13:03:34;;;;;;;9.30;2.13;;;;;;;;;;5096283;28;20273;-57
2022/01/20 13:06:03;;;;;;;6.82;1.60;;;;;;;;;;5096522;28;20287;-55
2022/01/20 13:08:34;;;;;;;4.65;1.70;;;;;;;;;;5096250;28;20207;-56
2022/01/20 13:11:06;;;;;;;7.15;2.00;;;;;;;;;;5096032;28;20306;-56
2022/01/20 13:13:33;;;;;;;20.25;2.28;;;;;;;;;;5096156;28;20273;-56
2022/01/20 13:16:10;;;;;;;8.25;2.65;;;;;;;;;;5096003;28;20684;-56
2022/01/20 13:18:38;;;;;;;5.93;2.15;;;;;;;;;;5096096;28;20181;-55
2022/01/20 13:21:08;;;;;;;10.57;2.25;;;;;;;;;;5095945;28;20235;-55
2022/01/20 13:23:56;;;;;;;9.13;2.72;;;;;;;;;;5096122;28;20235;-54
2022/01/20 13:26:24;;;;;;;6.90;1.95;;;;;;;;;;5096490;28;20554;-56
2022/01/20 13:28:58;;;;;;;6.85;1.92;;;;;;;;;;5096904;28;20208;-57
2022/01/20 13:31:26;;;;;;;5.00;2.40;;;;;;;;;;5095628;28;20204;-55
2022/01/20 13:33:53;;;;;;;8.13;2.15;;;;;;;;;;5096185;28;20220;-55
2022/01/20 13:36:22;;;;;;;3.97;1.77;;;;;;;;;;5096002;28;20200;-56
2022/01/20 13:38:56;;;;;;;2.20;1.35;;;;;;;;;;5095924;28;20204;-57
2022/01/20 13:41:28;;;;;;;4.75;1.83;;;;;;;;;;5095873;28;20597;-56
2022/01/20 13:46:42;;;;;;;6.50;2.08;;;;;;;;;;5095944;28;20192;-57
2022/01/20 13:49:09;;;;;;;6.60;1.80;;;;;;;;;;5095744;28;20211;-57
2022/01/20 13:51:38;;;;;;;6.82;1.95;;;;;;;;;;5095510;28;20216;-55
2022/01/20 13:54:06;;;;;;;6.53;2.05;;;;;;;;;;5095591;28;20225;-57
2022/01/20 13:56:33;;;;;;;9.77;3.15;;;;;;;;;;5095361;28;20680;-57
2022/01/20 13:59:05;;;;;;;6.40;2.20;;;;;;;;;;5095478;28;20204;-56
2022/01/20 14:01:32;;;;;;;5.55;1.80;;;;;;;;;;5095361;28;20203;-57
2022/01/20 14:03:59;;;;;;;5.15;1.88;;;;;;;;;;5095812;28;20372;-56
2022/01/20 14:06:27;;;;;;;5.65;1.38;;;;;;;;;;5096425;28;20204;-57
2022/01/20 14:08:56;;;;;;;3.22;1.30;;;;;;;;;;5095183;28;20207;-58
2022/01/20 14:11:23;;;;;;;2.37;1.03;;;;;;;;;;5094350;28;20451;-57
2022/01/20 14:13:51;;;;;;;0.88;0.57;;;;;;;;;;5095070;28;20473;-56
2022/01/20 14:16:18;;;;;;;1.13;0.60;;;;;;;;;;5095410;28;20673;-58
2022/01/20 14:18:47;;;;;;;1.30;0.80;;;2.40;99.90;;;;;;5094900;28;20216;-56
2022/01/20 14:21:17;;;;;;;2.88;1.20;;;0.80;99.90;;;;;;5095718;28;20200;-55
2022/01/20 14:23:44;;;;;;;6.22;1.10;;;0.60;99.90;;;;;;5094636;28;20247;-57
2022/01/20 14:26:21;;;;;;;3.35;1.40;;;0.50;99.90;;;;;;5095455;28;20227;-55
2022/01/20 14:28:48;;;;;;;3.25;1.15;;;0.50;99.90;;;;;;5095564;28;20585;-54
2022/01/20 14:31:16;;;;;;;7.95;1.58;;;0.50;99.90;;;;;;5095307;28;20220;-57
2022/01/20 14:33:43;;;;;;;2.90;1.73;;;0.50;99.90;;;;;;5095496;28;20220;-57
2022/01/20 14:36:10;;;;;;;3.63;1.50;;;0.50;99.90;;;;;;5095501;28;20200;-57
2022/01/20 14:38:37;;;;;;;3.65;1.20;;;0.50;99.90;;;;;;5095563;28;20197;-55
2022/01/20 14:41:04;;;;;;;5.90;1.75;;;0.60;99.90;;;;;;5095306;28;20196;-57
2022/01/20 14:43:32;;;;;;;3.28;1.50;;;0.60;99.90;;;;;;5095390;28;20231;-57
2022/01/20 14:45:59;;;;;;;3.10;1.83;;;0.60;99.90;;;;;;5094476;28;20204;-58
2022/01/20 14:48:28;;;;;;;4.45;1.77;;;0.60;99.90;;;;;;5094607;28;20202;-57
2022/01/20 14:50:55;;;;;;;2.90;1.23;;;0.60;99.90;;;;;;5093922;28;20242;-57
2022/01/20 14:53:23;;;;;;;6.68;2.35;;;0.70;99.90;;;;;;5093011;28;20220;-57
2022/01/20 14:55:50;;;;;;;7.95;2.10;;;0.70;99.90;;;;;;5094037;28;20203;-57
2022/01/20 14:58:17;;;;;;;4.30;1.70;;;0.70;99.90;;;;;;5094112;28;20207;-56
2022/01/20 15:00:46;;;;;;;5.93;2.00;;;0.70;99.90;;;;;;5094037;28;20203;-57
2022/01/20 15:03:13;;;;;;;6.80;1.92;;;0.80;99.90;;;;;;5093741;28;20224;-57
2022/01/20 15:05:40;;;;;;;3.95;1.55;;;0.70;99.90;;;;;;5094019;28;20210;-56
2022/01/20 15:08:07;;;;;;;5.00;1.98;;;0.70;99.90;;;;;;5094759;28;20617;-57
2022/01/20 15:10:34;;;;;;;3.78;1.75;;;0.80;99.90;;;;;;5093991;28;20212;-57
2022/01/20 15:13:02;;;;;;;3.20;1.70;;;0.80;99.90;;;;;;5093622;28;20676;-58
2022/01/20 15:15:30;;;;;;;4.20;1.60;;;0.80;99.90;;;;;;5094326;28;20253;-57
2022/01/20 15:17:58;;;;;;;3.97;1.30;;;0.90;99.90;;;;;;5094735;28;20303;-57
2022/01/20 15:20:25;;;;;;;4.28;1.88;;;0.90;99.90;;;;;;5094520;28;20652;-56
2022/01/20 15:22:53;;;;;;;4.70;1.55;;;0.90;99.90;;;;;;5093660;28;20236;-57
2022/01/20 15:25:20;;;;;;;4.53;1.90;;;0.90;99.90;;;;;;5094123;28;20208;-56
2022/01/20 15:27:47;;;;;;;7.63;1.70;;;0.90;99.90;;;;;;5094343;28;20582;-57
2022/01/20 15:30:14;;;;;;;7.40;2.03;;;0.90;99.90;;;;;;5093789;28;20668;-57
2022/01/20 15:32:41;;;;;;;5.60;1.75;;;0.90;99.90;;;;;;5094060;28;20598;-58
2022/01/20 15:35:10;;;;;;;3.78;1.38;;;0.90;99.90;;;;;;5094084;28;20204;-57
2022/01/20 15:37:38;;;;;;;6.00;2.33;;;0.90;99.90;;;;;;5093953;28;20196;-57